Date,TemperatureHighF,TemperatureAvgF,TemperatureLowF,DewpointHighF,DewpointAvgF,DewpointLowF,HumidityHigh,HumidityAvg,HumidityLow,PressureMaxIn,PressureMinIn,WindSpeedMaxMPH,WindSpeedAvgMPH,GustSpeedMaxMPH,PrecipitationSumIn
2013-2-23,40,40,39,40,40,38,98,98,98,30.26,29.87,12,7,12,0.48
2013-2-24,45,42,40,43,41,40,98,97,89,29.99,29.62,14,7,14,0.04
2013-3-8,64,55,46,49,46,43,94,75,52,29.68,29.62,9,4,9,0.12
2013-3-9,58,50,46,54,47,43,98,88,71,29.65,29.59,9,3,9,0.12
2013-3-10,56,50,47,51,46,43,98,87,63,29.62,29.50,7,3,7,0.04
2013-3-11,59,46,37,50,42,34,98,87,50,29.59,29.50,12,2,12,0.04
2013-3-16,33,29,22,12,12,11,63,49,42,30.18,30.12,4,1,4,0.04
2013-3-17,37,36,18,22,18,5,57,49,45,30.18,30.09,15,10,15,0.00
2013-3-26,34,31,28,28,26,24,89,83,74,29.83,29.71,10,4,10,0.25
2013-3-27,36,32,28,29,27,26,90,83,72,29.97,29.77,8,3,8,0.26
2013-3-28,40,33,30,31,28,25,90,81,56,30.06,29.94,14,3,14,0.26
2013-3-31,38,35,33,34,30,26,86,80,74,29.63,29.29,21,12,21,0.12
2013-4-1,46,40,33,27,24,21,76,56,42,29.87,29.63,15,6,15,0.00
2013-4-2,44,39,33,40,28,22,95,67,51,29.87,29.60,23,8,23,0.34
2013-4-3,43,40,38,43,39,36,98,96,92,29.72,29.60,15,6,15,0.05
2013-4-12,65,57,47,49,45,41,87,65,42,29.87,29.78,17,5,17,0.17
2013-4-13,66,54,45,47,41,34,93,66,33,30.17,29.81,22,6,22,0.17
2013-4-20,75,68,63,41,40,38,45,36,27,30.08,30.02,10,3,10,0.00
2013-4-21,73,61,49,42,40,23,70,48,30,30.08,29.93,14,5,14,0.00
2013-4-22,74,59,48,41,37,33,58,45,29,30.02,29.90,13,5,13,0.00
2013-4-30,70,69,67,45,44,44,44,42,40,29.99,29.96,8,3,8,0.00
2013-5-1,84,72,58,54,49,44,69,47,29,30.08,29.96,10,3,10,0.00
2013-5-2,76,65,61,54,51,49,65,61,47,30.02,29.96,12,6,12,0.00
2013-5-10,65,63,63,52,51,50,67,64,59,29.87,29.81,10,2,10,0.00
2013-5-11,70,64,60,60,55,51,91,73,61,29.87,29.72,14,6,14,0.16
2013-5-12,63,60,56,51,47,44,67,63,58,29.78,29.72,23,11,23,0.00
2013-5-13,56,54,53,44,43,41,67,64,59,29.90,29.78,25,14,25,0.00
2013-5-24,67,62,55,43,40,38,60,45,39,29.75,29.66,15,5,15,0.00
2013-5-25,62,57,51,47,43,40,71,61,46,29.78,29.69,10,4,10,0.13
2013-5-26,64,57,51,46,42,34,78,60,37,29.75,29.69,17,6,17,0.17
2013-5-31,52,52,51,47,47,46,84,83,80,29.63,29.60,4,0,3,0.08
2013-6-1,65,56,47,53,48,44,96,75,50,29.72,29.60,12,3,12,0.08
2013-6-2,68,58,51,56,50,46,90,78,49,29.84,29.66,12,3,12,0.33
2013-6-3,61,56,54,52,49,45,87,75,64,29.93,29.84,21,11,21,0.33
2013-6-4,66,57,53,56,50,46,85,78,66,29.90,29.84,17,9,17,0.00
2013-6-8,68,64,63,56,55,54,74,71,67,29.96,29.84,2,1,1,0.00
2013-6-9,82,69,58,61,56,52,91,67,35,29.90,29.75,14,3,14,0.00
2013-6-15,79,73,68,59,58,56,70,60,46,29.96,29.90,5,1,3,0.00
2013-6-16,87,76,63,65,58,53,87,57,32,30.02,29.93,8,2,8,0.00
2013-6-17,90,77,66,65,61,55,87,62,32,30.02,29.96,9,2,9,0.00
2013-6-23,90,80,70,67,60,56,69,51,32,29.99,29.75,12,4,12,0.00
2013-6-24,72,68,66,62,60,56,86,75,61,29.84,29.78,13,5,13,0.00
2013-6-29,72,65,61,58,47,42,61,53,36,29.93,29.81,11,2,11,0.00
2013-6-30,74,65,58,51,46,39,68,51,37,30.02,29.93,23,8,23,0.00
2013-7-1,75,64,52,47,43,39,67,48,32,30.11,30.02,14,5,14,0.00
2013-7-2,80,68,53,53,47,43,80,51,29,30.11,29.99,8,2,8,0.00
2013-7-3,84,71,57,55,49,44,80,50,26,30.02,29.90,13,3,13,0.00
2013-7-4,87,74,58,57,50,44,79,46,24,30.02,29.93,10,3,10,0.00
2013-7-5,86,74,66,65,57,50,79,58,31,30.11,30.02,20,4,20,0.09
2013-7-6,86,74,64,64,59,54,88,61,34,30.19,30.08,22,4,22,0.12
2013-7-20,86,80,70,71,47,43,62,33,28,30.02,29.90,14,7,14,0.00
2013-7-21,82,73,64,49,44,40,51,37,25,30.08,29.99,8,3,8,0.00
2013-7-22,83,67,58,52,48,45,70,52,30,30.08,29.99,8,2,8,0.00
2013-7-26,90,82,72,57,53,50,60,39,26,29.93,29.87,8,2,8,0.00
2013-7-27,93,80,66,61,58,53,72,50,27,29.93,29.84,10,2,10,0.00
2013-7-28,97,83,69,66,55,45,79,44,18,29.93,29.84,15,4,15,0.00
2013-7-29,99,82,70,58,56,50,62,44,20,29.93,29.78,17,4,17,0.00
2013-8-3,98,83,68,56,52,25,51,36,19,30.02,29.78,6,1,6,0.00
2013-8-4,94,82,71,57,52,46,60,38,20,30.05,29.90,12,4,12,0.00
2013-8-5,93,81,71,61,56,48,64,44,22,30.08,29.93,13,4,13,0.00
2013-8-6,96,82,68,61,58,49,73,47,21,30.02,29.84,14,2,14,0.00
2013-8-7,96,78,69,61,59,51,72,56,22,29.96,29.84,13,2,13,0.00
2013-8-10,69,68,68,50,49,49,52,51,49,29.93,29.90,15,9,15,0.00
2013-8-11,85,73,62,50,45,38,61,40,20,29.99,29.90,14,5,14,0.00
2013-8-12,87,75,61,53,47,42,64,41,22,30.02,29.90,10,3,10,0.00
2013-8-13,81,67,63,56,54,52,71,64,37,29.93,29.90,8,1,8,0.00
2013-8-19,65,65,65,38,38,38,37,37,37,29.93,29.93,5,5,5,0.00
2013-8-20,76,67,65,58,42,38,54,40,37,30.02,29.93,22,6,22,0.00
2013-8-31,63,61,61,51,50,44,67,66,51,30.05,30.02,14,2,3,0.00
2013-9-1,75,66,59,55,50,43,77,57,40,30.14,30.02,14,5,14,0.00
2013-9-2,71,62,52,45,42,38,71,49,32,30.17,30.08,18,6,18,0.00
2013-9-3,72,66,61,54,48,41,69,54,43,30.19,30.02,21,10,21,0.00
2013-9-4,72,60,53,51,48,42,81,67,34,30.22,30.17,10,4,10,0.00
2013-9-7,67,61,57,46,45,43,66,55,43,30.14,30.08,6,0,3,0.00
2013-9-8,82,65,50,50,44,37,81,51,23,30.19,30.08,10,3,10,0.00
2013-9-9,62,58,56,58,51,43,93,78,56,30.11,29.99,6,2,6,0.37
2013-9-10,71,59,53,63,56,52,98,90,56,30.11,29.96,8,3,8,0.37
2013-9-20,66,61,56,48,44,41,73,54,42,30.02,29.96,12,5,12,0.00
2013-9-21,67,59,54,51,48,44,82,67,46,30.19,30.02,15,6,15,0.00
2013-9-22,68,57,48,49,44,40,86,63,39,30.28,30.14,7,3,7,0.00
2013-9-23,69,60,52,50,47,42,70,61,46,30.17,29.96,24,8,24,0.00
2013-9-28,60,56,54,38,37,36,53,49,42,29.93,29.90,6,2,5,0.00
2013-9-29,60,55,49,38,36,33,60,50,38,30.02,29.87,16,5,16,0.00
2013-9-30,59,54,48,38,36,33,67,50,41,29.90,29.75,18,6,18,0.00
2013-10-1,62,54,50,37,34,32,51,47,38,29.84,29.78,10,5,10,0.00
2013-10-5,61,44,31,31,26,21,69,51,29,30.34,30.17,14,3,14,0.00
2013-10-6,65,50,38,37,31,26,64,50,29,30.28,30.17,13,2,13,0.00
2013-10-7,69,58,51,37,34,29,59,44,25,30.34,30.25,8,2,8,0.00
2013-10-11,58,58,58,52,50,41,79,73,52,30.05,30.02,6,5,6,0.00
2013-10-12,75,63,54,60,55,51,95,77,48,30.11,30.02,8,3,8,0.46
2013-10-13,68,60,51,60,53,44,98,81,51,30.17,30.05,10,3,10,0.46
2013-10-14,66,52,46,53,46,42,94,82,60,30.19,30.11,5,1,5,0.00
2013-10-20,59,55,43,49,43,34,71,65,60,30.14,30.08,11,3,11,0.00
2013-10-21,71,59,50,54,50,45,89,72,48,30.14,30.05,8,2,8,0.00
2013-10-26,55,54,53,48,48,47,80,78,77,30.11,30.08,2,0,2,0.00
2013-10-27,72,58,49,61,50,45,97,79,50,30.11,29.87,12,2,12,0.00
2013-10-28,69,60,56,59,53,50,87,80,65,30.02,29.93,10,2,10,0.00
2013-11-2,59,55,52,48,47,43,84,75,65,29.96,29.87,4,2,4,0.00
2013-11-3,66,53,48,60,49,42,98,85,63,29.87,29.63,18,4,18,0.33
2013-11-4,54,49,47,45,43,40,86,78,62,29.90,29.66,13,4,13,0.33
2013-11-9,50,50,50,47,47,46,90,88,87,29.84,29.78,7,4,7,0.20
2013-11-10,57,50,46,47,44,40,94,81,55,29.84,29.69,12,4,12,0.09
2013-11-11,51,49,48,47,43,40,90,81,72,30.22,29.72,13,6,13,0.16
2013-11-12,58,50,44,44,40,37,81,70,51,30.31,30.19,8,3,8,0.16
2013-11-13,51,50,50,46,44,44,84,81,81,30.25,30.19,4,1,4,0.00
2013-11-22,44,44,44,39,39,39,84,84,84,30.22,30.22,5,4,5,0.00
2013-11-23,52,49,47,49,46,44,98,88,77,29.78,29.66,17,7,17,0.08
2013-11-24,48,46,41,47,46,41,98,98,94,29.69,29.66,19,3,19,0.33
2013-11-25,41,37,35,41,30,25,98,75,63,30.05,29.66,28,12,28,0.37
2013-11-26,36,34,33,28,26,25,77,73,64,30.14,30.02,20,8,20,0.00
2013-12-6,42,39,30,34,31,23,75,74,73,30.28,30.14,4,3,8,0.00
2013-12-7,42,39,34,34,29,18,75,68,45,30.28,29.87,23,3,23,0.00
2013-12-8,42,38,35,34,30,23,81,71,60,30.28,30.14,12,4,12,0.00
2013-12-9,47,42,37,38,33,28,75,70,63,30.28,30.14,20,7,20,0.00
2013-12-10,46,41,38,37,32,23,80,70,50,30.58,30.25,15,6,15,0.00
2013-12-14,34,31,27,30,23,11,89,73,50,30.58,30.34,4,1,4,0.00
2013-12-15,39,36,32,35,32,28,90,87,81,30.52,30.40,8,3,8,0.00
2013-12-16,33,32,32,32,31,30,96,94,89,30.64,30.49,7,2,7,0.00
2013-12-24,36,34,30,34,32,28,98,93,90,30.61,30.22,6,2,0,0.00
2013-12-25,50,40,36,38,32,29,98,75,51,30.28,29.72,18,3,18,0.00
2013-12-26,45,42,36,43,36,31,95,82,72,29.75,29.55,13,5,13,0.04
2013-12-27,52,44,37,46,41,34,98,90,73,29.99,29.63,8,3,8,0.04
2013-12-28,42,37,33,42,36,32,98,95,87,30.05,29.93,2,0,2,0.00
2013-12-29,47,38,32,46,37,32,98,95,81,30.14,29.93,9,2,9,0.00